Los Lunas PMC

2020-09-27 20:00:00

  • imperial
Date Time Air Temperature Relative Humidity Wind Speed Wind Dir. Precipitation Solar Radiation Soil Temperature Soil Temperature Soil Temperature Soil Temperature Soil Temperature
5cm 10cm 20cm 50cm 100cm
US/Mountain F % MPH deg in MJ/m^2 F F F F F
max min avg max min max avg avg
2020-09-26 21:00:00 77.4 76.1 76.6 14.0 14.0 2.7 1.9 279.0 0.00 0.0000360 77.2 77.7 75.6 72.3 79.5
2020-09-26 22:00:00 76.3 75.6 76.1 15.0 14.0 2.8 1.8 283.0 0.00 0.0000000 75.6 76.5 75.0 72.3 79.5
2020-09-26 23:00:00 75.6 63.1 69.1 31.0 15.0 5.0 1.1 177.0 0.00 0.0000000 74.3 75.9 75.0 72.3 79.5
2020-09-27 00:00:00 63.1 59.0 61.7 37.0 31.0 4.1 0.7 166.0 0.00 0.0000000 73.0 75.0 74.7 72.3 79.5
2020-09-27 01:00:00 68.9 59.0 62.2 37.0 22.0 2.0 0.5 205.0 0.00 0.0000000 71.8 74.7 74.3 72.3 79.5
2020-09-27 02:00:00 73.4 61.2 64.2 33.0 18.0 3.5 1.3 274.0 0.00 0.0000000 71.1 73.4 73.9 72.7 79.5
2020-09-27 03:00:00 73.8 71.2 73.0 22.0 18.0 5.4 2.6 290.0 0.00 0.0000000 70.3 72.7 73.4 72.7 79.5
2020-09-27 04:00:00 72.5 69.4 71.6 26.0 22.0 6.2 3.4 286.0 0.00 0.0000000 70.0 72.7 73.0 72.7 79.5
2020-09-27 05:00:00 70.5 66.7 69.3 30.0 24.0 6.6 2.8 254.0 0.00 0.0000000 69.6 72.3 72.7 72.7 79.5
2020-09-27 06:00:00 66.7 59.4 62.1 41.0 30.0 3.3 0.5 83.0 0.00 0.0000000 68.9 71.8 72.7 72.7 79.5
2020-09-27 07:00:00 60.8 53.4 56.3 50.0 36.0 3.3 0.4 4.0 0.00 0.0029520 67.8 71.1 72.3 72.7 79.5
2020-09-27 08:00:00 58.6 53.6 54.5 49.0 45.0 1.8 0.2 182.0 0.00 0.1212840 67.1 70.3 71.8 72.7 79.5
2020-09-27 09:00:00 67.8 58.6 62.2 45.0 35.0 3.7 0.9 188.0 0.00 0.7542000 67.5 70.3 71.4 72.7 79.5
2020-09-27 10:00:00 74.8 67.8 71.1 35.0 26.0 5.5 1.4 148.0 0.00 1.6203600 68.9 69.6 71.4 72.7 79.5
2020-09-27 11:00:00 81.5 74.8 78.4 26.0 15.0 10.1 2.2 132.0 0.00 2.2500000 71.4 70.0 71.1 73.0 79.5
2020-09-27 12:00:00 86.4 81.5 83.8 16.0 11.0 4.6 2.2 296.0 0.00 2.6938800 75.6 70.7 71.1 72.7 79.5
2020-09-27 13:00:00 88.9 86.4 87.8 12.0 9.0 7.4 2.4 305.0 0.00 2.8944000 78.6 72.3 71.4 72.7 79.5
2020-09-27 14:00:00 90.3 88.2 88.9 10.0 9.0 11.9 3.3 325.0 0.00 2.9016000 82.0 73.4 72.3 72.7 79.5
2020-09-27 15:00:00 90.3 89.2 89.6 10.0 9.0 14.3 5.9 351.0 0.00 2.6535600 83.5 75.9 73.0 72.7 79.5
2020-09-27 16:00:00 91.9 90.3 91.0 9.0 8.0 18.6 4.2 339.0 0.00 2.1999600 85.1 77.2 73.9 72.7 79.5
2020-09-27 17:00:00 90.9 90.0 90.3 9.0 9.0 14.2 4.5 333.0 0.00 0.9234000 84.6 78.6 75.0 72.7 79.5
2020-09-27 18:00:00 90.0 88.0 89.2 10.0 9.0 11.4 3.9 341.0 0.00 0.1407600 82.9 79.5 75.6 72.3 79.5
2020-09-27 19:00:00 88.0 81.7 86.4 12.0 10.0 11.6 4.6 354.0 0.00 0.0550440 81.0 78.6 75.6 72.3 79.5
2020-09-27 20:00:00 81.7 75.6 79.0 15.0 12.0 9.6 4.6 359.0 0.00 0.0009000 79.2 78.6 75.9 72.7 79.5

Data is presented as is, with no certification of correctness. DO NOT USE IN LEGAL PROCEEDINGS.